createdAt,value
2017-08-21T01:42:40.928Z,1022.77
2017-08-21T01:42:41.493Z,1022.78
2017-08-21T01:42:42.099Z,1022.73
2017-08-21T01:42:42.697Z,1022.78
2017-08-21T01:42:43.299Z,1022.78
2017-08-21T01:42:43.900Z,1022.76
2017-08-21T01:42:44.498Z,1022.77
2017-08-21T01:42:45.101Z,1022.78
2017-08-21T01:42:45.694Z,1022.78
2017-08-21T01:42:46.292Z,1022.78
2017-08-21T01:42:46.890Z,1022.76
2017-08-21T01:42:47.491Z,1022.76
2017-08-21T01:45:32.700Z,1022.77
2017-08-21T01:45:33.209Z,1022.77
2017-08-21T01:45:33.808Z,1022.78
2017-08-21T01:45:34.410Z,1022.78
2017-08-21T01:45:35.005Z,1022.79
2017-08-21T01:45:35.615Z,1022.78
2017-08-21T01:45:36.208Z,1022.76
2017-08-21T01:45:36.813Z,1022.77
2017-08-21T01:45:37.409Z,1022.76
2017-08-21T01:45:38.011Z,1022.81
2017-08-21T01:45:38.607Z,1022.79
2017-08-21T01:49:29.961Z,1022.80
2017-08-21T01:49:30.472Z,1022.79
2017-08-21T01:49:31.075Z,1022.76
2017-08-21T01:53:05.782Z,1022.84
2017-08-21T01:53:06.292Z,1022.81
2017-08-21T01:53:06.891Z,1022.82
2017-08-21T01:53:07.491Z,1022.84
2017-08-21T01:53:08.095Z,1022.84
2017-08-21T01:53:08.696Z,1022.80
2017-08-21T01:53:09.289Z,1022.86
2017-08-21T01:53:09.886Z,1022.84
2017-08-21T01:53:10.487Z,1022.84
2017-08-21T01:53:11.090Z,1022.77
2017-08-21T01:53:11.694Z,1022.82
2017-08-21T01:56:24.049Z,1022.84
2017-08-21T01:56:24.613Z,1022.82
2017-08-21T01:56:25.213Z,1022.81
2017-08-21T01:56:25.833Z,1022.76
2017-08-21T01:56:26.417Z,1022.77
2017-08-21T01:56:27.015Z,1022.78
2017-08-21T01:56:27.622Z,1022.76
2017-08-21T01:56:28.212Z,1022.81
2017-08-21T01:56:28.808Z,1022.77
2017-08-21T01:56:29.411Z,1022.78
2017-08-21T01:56:30.008Z,1022.79
2017-08-21T01:56:30.610Z,1022.78
2017-08-21T01:57:24.718Z,1022.75
2017-08-21T01:57:25.310Z,1022.80
2017-08-21T01:57:25.916Z,1022.81
2017-08-21T01:57:26.512Z,1022.79
2017-08-21T01:57:27.108Z,1022.75
2017-08-21T01:57:27.709Z,1022.78
2017-08-21T01:57:28.304Z,1022.77
2017-08-21T01:57:28.915Z,1022.76
2017-08-21T01:58:22.370Z,1022.77
2017-08-21T01:58:22.960Z,1022.74
2017-08-21T01:58:23.565Z,1022.74
2017-08-21T01:58:24.158Z,1022.73
2017-08-21T01:58:24.763Z,1022.76
2017-08-21T01:58:25.361Z,1022.78
2017-08-21T01:58:25.957Z,1022.77
2017-08-21T01:58:26.561Z,1022.75
2017-08-21T02:02:06.409Z,1022.77
2017-08-21T02:02:06.916Z,1022.75
2017-08-21T02:02:07.518Z,1022.72
2017-08-21T02:02:08.112Z,1022.72
2017-08-21T02:02:08.719Z,1022.72
2017-08-21T02:02:09.324Z,1022.75
2017-08-21T02:06:00.231Z,1022.70
2017-08-21T02:06:00.795Z,1022.71
2017-08-21T02:06:01.399Z,1022.70
2017-08-21T02:06:01.992Z,1022.69
2017-08-21T02:06:02.597Z,1022.71
2017-08-21T02:06:03.191Z,1022.69
2017-08-21T02:06:03.796Z,1022.71
2017-08-21T02:07:39.327Z,1022.71
2017-08-21T02:07:39.917Z,1022.75
2017-08-21T02:07:40.519Z,1022.71
2017-08-21T02:07:41.119Z,1022.76
2017-08-21T02:07:41.716Z,1022.74
2017-08-21T02:08:48.339Z,1022.77
2017-08-21T02:08:48.938Z,1022.74
2017-08-21T02:08:49.537Z,1022.74
2017-08-21T02:08:50.135Z,1022.75
2017-08-21T02:08:50.735Z,1022.75
2017-08-21T02:56:47.774Z,1022.72
2017-08-21T02:56:48.343Z,1022.73
2017-08-21T02:56:48.945Z,1022.71
2017-08-21T02:56:49.543Z,1022.73
2017-08-21T02:56:50.146Z,1022.73
2017-08-21T02:56:50.747Z,1022.73
2017-08-21T02:56:51.340Z,1022.74
2017-08-21T02:59:23.667Z,1022.79
2017-08-21T02:59:24.238Z,1022.75
2017-08-21T02:59:24.836Z,1022.75
2017-08-21T02:59:25.438Z,1022.77
2017-08-21T02:59:26.036Z,1022.75
2017-08-21T02:59:26.643Z,1022.74
2017-08-21T02:59:27.243Z,1022.75
2017-08-21T02:59:27.834Z,1022.77
2017-08-21T02:59:28.438Z,1022.73
2017-08-21T02:59:29.036Z,1022.74
2017-08-21T03:01:37.333Z,1022.74
2017-08-21T04:08:01.701Z,1022.80
2017-08-21T04:08:02.212Z,1022.78
2017-08-21T04:08:02.811Z,1022.78
2017-08-21T04:08:03.411Z,1022.76
2017-08-21T04:08:04.008Z,1022.80
2017-08-21T04:08:04.609Z,1022.81
2017-08-21T04:08:05.205Z,1022.78
2017-08-21T04:08:05.804Z,1022.80
2017-08-21T04:08:06.405Z,1022.75
2017-08-21T04:08:07.011Z,1022.79
2017-08-21T04:08:07.612Z,1022.78
2017-08-21T04:08:08.207Z,1022.78
2017-08-21T04:08:08.809Z,1022.79
2017-08-21T04:08:09.408Z,1022.81
2017-08-21T04:09:04.449Z,1022.77
2017-08-21T04:09:05.010Z,1022.77
2017-08-21T04:09:05.615Z,1022.74
2017-08-21T04:09:06.217Z,1022.76
2017-08-21T04:09:06.813Z,1022.79
2017-08-21T04:09:07.416Z,1022.79
2017-08-21T04:10:33.511Z,1022.80
2017-08-21T04:10:34.110Z,1022.79
2017-08-21T04:10:34.709Z,1022.82
2017-08-21T04:10:35.310Z,1022.79
2017-08-21T04:10:35.906Z,1022.78
2017-08-21T04:12:48.703Z,1022.81
2017-08-21T04:12:49.291Z,1022.79
2017-08-21T04:12:49.899Z,1022.85
2017-08-21T04:12:50.492Z,1022.80
2017-08-21T04:12:51.090Z,1022.83
2017-08-21T04:12:51.697Z,1022.82
2017-08-21T04:12:52.292Z,1022.82
2017-08-21T04:12:52.893Z,1022.79
2017-08-21T04:12:53.489Z,1022.84
2017-08-21T04:12:54.097Z,1022.81
2017-08-21T04:12:54.693Z,1022.81
2017-08-21T04:12:55.288Z,1022.83
2017-08-21T04:13:50.830Z,1022.81
2017-08-21T04:13:51.433Z,1022.82
2017-08-21T04:13:52.025Z,1022.79
2017-08-21T04:13:52.632Z,1022.84
2017-08-21T04:13:53.237Z,1022.83
2017-08-21T04:13:53.830Z,1022.81
2017-08-21T04:14:50.357Z,1022.80
2017-08-21T04:14:50.927Z,1022.80
2017-08-21T04:14:51.521Z,1022.79
2017-08-21T04:14:52.126Z,1022.81
2017-08-21T04:14:52.731Z,1022.78
2017-08-21T04:14:53.322Z,1022.78
2017-08-21T04:16:08.872Z,1022.78
2017-08-21T04:16:09.464Z,1022.82
2017-08-21T04:16:10.062Z,1022.79
2017-08-21T04:16:10.665Z,1022.79
2017-08-21T04:16:11.281Z,1022.80
2017-08-21T04:16:11.867Z,1022.80
2017-08-21T04:17:05.909Z,1022.79
2017-08-21T04:17:06.512Z,1022.83
2017-08-21T04:17:07.104Z,1022.84
2017-08-21T04:17:07.705Z,1022.83
2017-08-21T04:17:08.301Z,1022.81
2017-08-21T04:17:08.905Z,1022.81
2017-08-21T04:17:09.500Z,1022.80
2017-08-21T04:17:10.105Z,1022.80
2017-08-21T04:19:22.398Z,1022.80
2017-08-21T04:19:22.992Z,1022.77
2017-08-21T04:19:23.592Z,1022.79
2017-08-21T04:19:24.194Z,1022.79
2017-08-21T04:19:24.789Z,1022.78
2017-08-21T04:19:25.390Z,1022.79
2017-08-21T04:19:26.020Z,1022.80
2017-08-21T04:19:26.589Z,1022.80
2017-08-21T04:19:27.190Z,1022.80
2017-08-21T04:19:27.792Z,1022.78
2017-08-21T04:20:21.826Z,1022.83
2017-08-21T04:20:22.394Z,1022.82
2017-08-21T04:20:22.991Z,1022.82
2017-08-21T04:20:23.606Z,1022.84
2017-08-21T04:20:24.199Z,1022.84
2017-08-21T04:20:24.799Z,1022.83
2017-08-21T04:20:25.394Z,1022.82
2017-08-21T04:21:18.939Z,1022.82
2017-08-21T04:21:19.536Z,1022.83
2017-08-21T04:21:20.145Z,1022.85
2017-08-21T04:21:20.742Z,1022.80
2017-08-21T04:21:21.334Z,1022.84
2017-08-21T04:21:21.941Z,1022.79
2017-08-21T04:21:22.537Z,1022.84
2017-08-21T04:21:23.134Z,1022.83
2017-08-21T04:22:24.166Z,1022.87
2017-08-21T04:22:24.764Z,1022.84
2017-08-21T04:22:25.369Z,1022.81
2017-08-21T04:22:25.968Z,1022.81
2017-08-21T04:22:26.564Z,1022.85
2017-08-21T04:22:27.162Z,1022.82
2017-08-21T04:22:27.762Z,1022.82
2017-08-21T04:22:28.364Z,1022.85
2017-08-21T04:22:28.959Z,1022.82
2017-08-21T04:22:29.559Z,1022.85
2017-08-21T04:22:30.168Z,1022.83
2017-08-21T04:22:30.759Z,1022.86
2017-08-21T04:23:24.283Z,1022.88
2017-08-21T04:23:24.878Z,1022.88
2017-08-21T04:23:25.483Z,1022.87
2017-08-21T04:23:26.074Z,1022.86
2017-08-21T04:23:26.675Z,1022.83
2017-08-21T04:23:27.274Z,1022.82
2017-08-21T04:23:27.877Z,1022.86
2017-08-21T04:23:28.474Z,1022.86
2017-08-21T04:24:53.983Z,1022.85
2017-08-21T04:24:54.579Z,1022.84
2017-08-21T04:24:55.178Z,1022.86
2017-08-21T04:24:55.781Z,1022.85
2017-08-21T04:24:56.380Z,1022.84
2017-08-21T04:26:10.391Z,1022.85
2017-08-21T04:26:10.969Z,1022.87
2017-08-21T04:26:11.569Z,1022.85
2017-08-21T04:26:12.167Z,1022.87
2017-08-21T04:26:12.772Z,1022.88
2017-08-21T04:26:13.368Z,1022.85
2017-08-21T04:26:13.970Z,1022.82
2017-08-21T04:27:25.024Z,1022.90
2017-08-21T04:27:25.620Z,1022.85
2017-08-21T04:27:26.214Z,1022.87
2017-08-21T04:27:26.819Z,1022.84
2017-08-21T04:27:27.417Z,1022.86
2017-08-21T04:27:28.019Z,1022.89
2017-08-21T04:27:28.621Z,1022.86
2017-08-21T04:27:29.214Z,1022.86
2017-08-21T04:27:29.820Z,1022.87
2017-08-21T04:27:30.414Z,1022.89
2017-08-21T04:27:31.018Z,1022.86
2017-08-21T04:27:31.617Z,1022.86
2017-08-21T04:28:47.660Z,1022.90
2017-08-21T04:28:48.256Z,1022.89
2017-08-21T04:28:48.860Z,1022.90
2017-08-21T04:28:49.455Z,1022.86
2017-08-21T04:29:43.468Z,1022.87
2017-08-21T04:29:44.070Z,1022.87
2017-08-21T04:29:44.667Z,1022.87
2017-08-21T04:29:45.264Z,1022.92
2017-08-21T04:29:45.865Z,1022.91
2017-08-21T04:29:46.465Z,1022.90
2017-08-21T04:29:47.060Z,1022.86
2017-08-21T04:30:42.078Z,1022.95
2017-08-21T04:30:42.638Z,1022.91
2017-08-21T04:30:43.238Z,1022.90
2017-08-21T04:30:43.838Z,1022.91
2017-08-21T04:30:44.438Z,1022.88
2017-08-21T04:30:45.039Z,1022.91
2017-08-21T04:32:29.561Z,1022.91
2017-08-21T04:32:30.160Z,1022.91
2017-08-21T04:32:30.764Z,1022.94
2017-08-21T04:32:31.359Z,1022.91
2017-08-21T04:32:31.956Z,1022.92
2017-08-21T04:32:32.563Z,1022.91
2017-08-21T04:32:33.158Z,1022.91
2017-08-21T04:33:27.113Z,1022.91
2017-08-21T04:33:27.709Z,1022.89
2017-08-21T04:33:28.304Z,1022.91
2017-08-21T04:33:28.906Z,1022.93
2017-08-21T04:33:29.519Z,1022.92
2017-08-21T04:33:30.106Z,1022.93
2017-08-21T04:33:30.705Z,1022.92
2017-08-21T04:35:33.271Z,1022.87
2017-08-21T04:35:33.784Z,1022.83
2017-08-21T04:35:34.381Z,1022.86
2017-08-21T04:35:34.985Z,1022.87
2017-08-21T04:35:35.582Z,1022.86
2017-08-21T04:35:36.179Z,1022.87
2017-08-21T04:35:36.776Z,1022.87
2017-08-21T04:35:37.378Z,1022.85
2017-08-21T04:35:37.974Z,1022.87
2017-08-21T04:35:38.591Z,1022.84
2017-08-21T04:35:39.176Z,1022.86
2017-08-21T04:37:00.232Z,1022.88
2017-08-21T04:37:00.809Z,1022.89
2017-08-21T04:37:01.410Z,1022.87
2017-08-21T04:37:02.009Z,1022.88
2017-08-21T04:37:02.609Z,1022.88
2017-08-21T04:37:03.213Z,1022.89
2017-08-21T04:37:03.806Z,1022.88
2017-08-21T04:37:04.408Z,1022.89
2017-08-21T04:37:05.006Z,1022.90
2017-08-21T04:37:05.605Z,1022.90
2017-08-21T04:37:06.206Z,1022.87
2017-08-21T04:37:06.806Z,1022.91
2017-08-21T04:38:05.849Z,1022.90
2017-08-21T04:38:06.446Z,1022.90
2017-08-21T04:38:07.050Z,1022.91
2017-08-21T04:38:07.647Z,1022.89
2017-08-21T04:38:08.240Z,1022.89
2017-08-21T04:38:08.855Z,1022.89
2017-08-21T04:39:03.804Z,1022.88
2017-08-21T04:39:04.407Z,1022.90
2017-08-21T04:39:04.998Z,1022.88
2017-08-21T04:39:05.605Z,1022.89
2017-08-21T04:39:06.206Z,1022.87
2017-08-21T04:39:06.802Z,1022.90
2017-08-21T04:39:07.398Z,1022.90
2017-08-21T04:39:08.003Z,1022.89
2017-08-21T04:40:01.968Z,1022.88
2017-08-21T04:40:02.567Z,1022.90
2017-08-21T04:40:03.170Z,1022.89
2017-08-21T04:40:03.770Z,1022.88
2017-08-21T04:40:05.033Z,1022.88
2017-08-21T04:40:05.546Z,1022.92
2017-08-21T04:41:00.573Z,1022.92
2017-08-21T04:41:01.141Z,1022.92
2017-08-21T04:41:01.740Z,1022.93
2017-08-21T04:41:02.338Z,1022.92
2017-08-21T04:41:02.938Z,1022.91
2017-08-21T04:41:03.537Z,1022.92
2017-08-21T04:41:58.505Z,1022.91
2017-08-21T04:41:59.099Z,1022.93
2017-08-21T04:41:59.694Z,1022.94
2017-08-21T04:42:00.298Z,1022.93
2017-08-21T04:42:00.897Z,1022.95
2017-08-21T04:42:01.498Z,1022.91
2017-08-21T04:42:02.094Z,1022.90
2017-08-21T04:42:02.695Z,1022.91
2017-08-21T04:42:56.663Z,1022.95
2017-08-21T04:42:57.267Z,1022.93
2017-08-21T04:42:57.861Z,1022.94
2017-08-21T04:42:58.465Z,1022.96
2017-08-21T04:42:59.061Z,1022.95
2017-08-21T04:42:59.663Z,1022.94
2017-08-21T04:43:00.264Z,1022.95
2017-08-21T04:43:56.772Z,1022.96
2017-08-21T04:43:57.368Z,1022.96
2017-08-21T04:43:57.975Z,1022.93
2017-08-21T04:45:45.679Z,1022.93
2017-08-21T04:45:46.184Z,1022.92
2017-08-21T04:45:46.721Z,1022.93
2017-08-21T04:45:47.319Z,1022.92
2017-08-21T04:45:47.920Z,1022.92
2017-08-21T04:45:48.524Z,1022.94
2017-08-21T04:45:49.124Z,1022.95
2017-08-21T04:45:49.725Z,1022.95
2017-08-21T04:45:50.319Z,1022.94
2017-08-21T04:45:50.920Z,1022.93
2017-08-21T04:45:51.517Z,1022.96
2017-08-21T04:45:52.123Z,1022.96
2017-08-21T04:45:52.721Z,1022.93
2017-08-21T04:45:53.326Z,1022.95
2017-08-21T04:45:53.920Z,1022.93
2017-08-21T04:45:54.520Z,1022.96
2017-08-21T04:45:55.115Z,1022.90
2017-08-21T04:45:55.725Z,1022.92
2017-08-21T04:46:59.793Z,1022.94
2017-08-21T04:47:00.363Z,1022.96
2017-08-21T04:47:00.965Z,1022.97
2017-08-21T04:47:01.560Z,1022.95
2017-08-21T04:47:02.174Z,1022.96
2017-08-21T04:47:02.765Z,1022.94
2017-08-21T04:47:03.360Z,1022.94
2017-08-21T05:11:11.787Z,1023.01
2017-08-21T05:11:12.288Z,1023.03
2017-08-21T05:11:12.870Z,1023.02
2017-08-21T05:11:13.475Z,1023.04
2017-08-21T05:11:14.072Z,1022.98
2017-08-21T05:11:14.668Z,1023.02
2017-08-21T05:11:15.269Z,1023.02
2017-08-21T05:11:15.877Z,1022.99
2017-08-21T05:14:00.514Z,1023.04
2017-08-21T05:14:01.033Z,1023.05
2017-08-21T05:14:01.631Z,1023.04
2017-08-21T05:14:02.227Z,1023.04
2017-08-21T05:14:02.825Z,1023.04
2017-08-21T05:14:03.425Z,1023.03
2017-08-21T05:14:04.032Z,1023.04
2017-08-21T05:14:04.625Z,1023.07
2017-08-21T05:14:05.223Z,1023.04
2017-08-21T05:14:06.541Z,1023.05
2017-08-21T05:15:00.802Z,1023.06
2017-08-21T05:15:01.371Z,1023.05
2017-08-21T05:15:02.027Z,1023.05
2017-08-21T05:15:02.685Z,1023.04
2017-08-21T05:15:03.171Z,1023.05
2017-08-21T05:15:03.792Z,1023.07
2017-08-21T05:15:04.376Z,1023.04
2017-08-21T05:16:18.454Z,1023.02
2017-08-21T05:16:18.992Z,1023.01
2017-08-21T05:16:19.595Z,1023.06
2017-08-21T05:16:20.189Z,1023.03
2017-08-21T05:16:20.795Z,1023.04
2017-08-21T05:16:21.399Z,1023.06
2017-08-21T05:16:21.996Z,1023.03
2017-08-21T05:17:15.536Z,1022.98
2017-08-21T05:17:16.134Z,1022.97
2017-08-21T05:17:16.739Z,1022.97
2017-08-21T05:17:17.342Z,1022.99
2017-08-21T05:17:17.928Z,1022.98
2017-08-21T05:17:18.534Z,1022.99
2017-08-21T05:17:19.132Z,1023.00
2017-08-21T05:17:19.729Z,1023.02
2017-08-21T05:18:27.321Z,1023.01
2017-08-21T05:18:27.934Z,1023.02
2017-08-21T05:18:28.510Z,1023.02
2017-08-21T05:19:23.545Z,1023.02
2017-08-21T05:19:24.152Z,1023.00
2017-08-21T05:19:24.740Z,1023.03
2017-08-21T05:19:25.341Z,1023.01
2017-08-21T05:19:25.932Z,1023.00
2017-08-21T05:19:26.530Z,1023.02
2017-08-21T05:20:21.496Z,1022.96
2017-08-21T05:20:22.095Z,1022.98
2017-08-21T05:20:22.689Z,1022.99
2017-08-21T05:20:23.290Z,1022.96
2017-08-21T05:20:23.890Z,1022.98
2017-08-21T05:20:24.488Z,1022.98
2017-08-21T05:20:25.090Z,1023.00
2017-08-21T05:20:25.690Z,1022.99
2017-08-21T05:21:22.251Z,1022.95
2017-08-21T05:21:22.811Z,1022.96
2017-08-21T05:21:23.410Z,1022.97
2017-08-21T05:22:19.868Z,1023.00
2017-08-21T05:22:20.463Z,1023.01
2017-08-21T05:22:21.070Z,1023.00
2017-08-21T05:23:14.551Z,1023.04
2017-08-21T05:23:15.151Z,1023.05
2017-08-21T05:23:15.743Z,1023.02
2017-08-21T05:23:16.352Z,1022.97
2017-08-21T05:23:16.946Z,1023.02
2017-08-21T05:23:17.546Z,1022.98
2017-08-21T05:23:18.143Z,1023.01
2017-08-21T05:23:18.746Z,1022.99
2017-08-21T05:24:24.287Z,1023.03
2017-08-21T05:24:24.883Z,1022.99
2017-08-21T05:24:25.488Z,1022.99
2017-08-21T05:24:26.080Z,1023.02
2017-08-21T05:24:26.692Z,1023.00
2017-08-21T05:24:27.283Z,1023.03
2017-08-21T05:25:21.226Z,1023.00
2017-08-21T05:25:21.818Z,1022.98
2017-08-21T05:25:22.418Z,1022.98
2017-08-21T05:25:23.018Z,1022.99
2017-08-21T05:25:23.621Z,1023.00
2017-08-21T05:25:24.213Z,1023.02
2017-08-21T05:25:24.818Z,1023.00
2017-08-21T05:26:45.835Z,1023.03
2017-08-21T05:26:46.405Z,1023.05
2017-08-21T05:26:47.004Z,1023.05
2017-08-21T05:26:47.597Z,1023.05
2017-08-21T05:26:48.196Z,1023.03
2017-08-21T05:26:48.802Z,1023.05
2017-08-21T05:26:49.405Z,1023.05
2017-08-21T05:26:50.004Z,1023.08
2017-08-21T05:26:50.603Z,1023.07
2017-08-21T05:26:51.196Z,1023.05
2017-08-21T05:26:51.795Z,1023.06
2017-08-21T05:26:52.402Z,1023.06
2017-08-21T05:27:50.937Z,1023.06
2017-08-21T05:27:51.524Z,1023.07
2017-08-21T05:27:52.132Z,1023.06
2017-08-21T05:27:52.729Z,1023.05
2017-08-21T05:27:53.332Z,1023.05
2017-08-21T05:27:53.932Z,1023.07
2017-08-21T05:27:54.531Z,1023.04
2017-08-21T05:27:55.131Z,1023.06
2017-08-21T05:27:55.729Z,1023.05
2017-08-21T05:27:56.329Z,1023.06
2017-08-21T05:27:56.928Z,1023.07
2017-08-21T05:27:57.532Z,1023.04
2017-08-21T05:27:58.134Z,1023.05
2017-08-21T05:27:58.728Z,1023.04
2017-08-21T05:27:59.327Z,1023.08
2017-08-21T05:27:59.927Z,1023.07
2017-08-21T05:29:14.002Z,1023.04
2017-08-21T05:29:14.576Z,1023.05
2017-08-21T05:29:15.178Z,1023.06
2017-08-21T05:29:15.776Z,1023.07
2017-08-21T05:29:16.374Z,1023.05
2017-08-21T05:29:16.972Z,1023.07
2017-08-21T05:29:17.571Z,1023.09
2017-08-21T05:30:12.560Z,1023.05
2017-08-21T05:30:13.158Z,1023.03
2017-08-21T05:30:13.751Z,1023.03
2017-08-21T05:30:14.349Z,1023.05
2017-08-21T05:30:14.948Z,1023.06
2017-08-21T05:30:15.553Z,1023.08
2017-08-21T05:31:09.605Z,1023.04
2017-08-21T05:31:10.188Z,1023.03
2017-08-21T05:31:10.789Z,1023.04
2017-08-21T05:31:11.389Z,1023.06
2017-08-21T05:31:11.985Z,1023.05
2017-08-21T05:31:12.586Z,1023.05
2017-08-21T05:31:13.196Z,1023.04
2017-08-21T05:31:13.790Z,1023.07
2017-08-21T05:32:10.349Z,1023.08
2017-08-21T05:32:10.909Z,1023.08
2017-08-21T05:32:11.510Z,1023.06
2017-08-21T05:33:16.578Z,1023.04
2017-08-21T05:33:17.159Z,1023.03
2017-08-21T05:33:17.767Z,1023.05
2017-08-21T05:33:18.388Z,1023.05
2017-08-21T05:33:18.960Z,1023.04
2017-08-21T05:33:19.564Z,1023.06
2017-08-21T05:34:17.603Z,1023.05
2017-08-21T05:34:18.194Z,1023.03
2017-08-21T05:34:18.796Z,1023.04
2017-08-21T05:35:13.815Z,1023.03
2017-08-21T05:35:14.413Z,1023.03
2017-08-21T05:35:15.008Z,1022.98
2017-08-21T05:35:15.627Z,1023.04
2017-08-21T05:35:16.216Z,1023.02
2017-08-21T05:35:16.813Z,1023.01
2017-08-21T05:38:59.700Z,1023.05
2017-08-21T05:39:00.272Z,1022.97
2017-08-21T05:39:00.890Z,1023.02
2017-08-21T05:39:01.468Z,1023.02
2017-08-21T05:39:02.067Z,1023.04
2017-08-21T05:39:02.695Z,1023.03
2017-08-21T05:39:03.270Z,1023.04
2017-08-21T05:39:03.861Z,1023.02
2017-08-21T05:39:04.463Z,1023.00
2017-08-21T05:39:05.073Z,1023.01
2017-08-21T05:39:05.664Z,1023.03
2017-08-21T05:39:06.274Z,1023.04
2017-08-21T05:41:39.382Z,1022.99
2017-08-21T05:41:39.888Z,1023.00
2017-08-21T05:41:40.478Z,1023.00
2017-08-21T05:41:41.117Z,1022.97
2017-08-21T05:41:41.680Z,1022.99
2017-08-21T05:41:42.281Z,1023.02
2017-08-21T05:41:42.881Z,1022.99
2017-08-21T05:41:43.484Z,1023.01
2017-08-21T05:41:44.082Z,1023.00
2017-08-21T05:41:44.681Z,1022.98
2017-08-21T05:41:45.283Z,1023.02
2017-08-21T05:41:45.884Z,1022.97
2017-08-21T05:41:46.485Z,1022.98
2017-08-21T06:05:27.667Z,1023.22
2017-08-21T06:05:28.234Z,1023.20
2017-08-21T06:05:28.837Z,1023.24
2017-08-21T06:05:29.434Z,1023.22
2017-08-21T06:05:30.036Z,1023.23
2017-08-21T06:40:16.796Z,1023.63
2017-08-21T06:40:17.354Z,1023.63
2017-08-21T06:40:17.952Z,1023.66
2017-08-21T06:40:18.549Z,1023.67
2017-08-21T06:40:19.184Z,1023.65
2017-08-21T06:40:19.746Z,1023.65
2017-08-21T06:40:20.353Z,1023.65
2017-08-21T06:40:20.946Z,1023.64
2017-08-21T06:40:21.553Z,1023.64
2017-08-21T06:40:22.149Z,1023.63
2017-08-21T06:40:22.750Z,1023.64
2017-08-21T06:40:23.351Z,1023.61
2017-08-21T06:41:17.443Z,1023.63
2017-08-21T06:41:18.045Z,1023.60
2017-08-21T06:41:18.639Z,1023.64
2017-08-21T06:41:19.242Z,1023.61
2017-08-21T06:41:19.857Z,1023.63
2017-08-21T06:41:20.940Z,1023.62
2017-08-21T06:41:21.453Z,1023.57
2017-08-21T06:42:15.413Z,1023.68
2017-08-21T06:42:15.999Z,1023.67
2017-08-21T06:42:16.596Z,1023.68
2017-08-21T06:42:17.201Z,1023.69
2017-08-21T06:42:17.800Z,1023.69
2017-08-21T06:42:18.395Z,1023.68
2017-08-21T06:42:19.021Z,1023.68
2017-08-21T07:07:04.447Z,1023.84
2017-08-21T07:07:05.002Z,1023.83
2017-08-21T07:07:05.604Z,1023.83
2017-08-21T07:07:59.604Z,1023.85
2017-08-21T07:08:00.199Z,1023.86
2017-08-21T07:08:00.795Z,1023.85
2017-08-21T07:08:01.400Z,1023.84
2017-08-21T07:08:02.000Z,1023.85
2017-08-21T07:08:02.596Z,1023.85
2017-08-21T07:08:03.202Z,1023.84
2017-08-21T07:08:59.717Z,1023.89
2017-08-21T07:09:00.309Z,1023.92
2017-08-21T07:09:00.922Z,1023.90
2017-08-21T07:09:54.428Z,1023.90
2017-08-21T07:09:54.995Z,1023.89
2017-08-21T07:09:55.596Z,1023.86
2017-08-21T07:09:56.193Z,1023.90
2017-08-21T07:09:56.796Z,1023.89
2017-08-21T07:09:57.389Z,1023.90
2017-08-21T07:09:57.987Z,1023.86
2017-08-21T07:09:58.591Z,1023.88
2017-08-21T07:10:52.050Z,1023.92
2017-08-21T07:10:52.644Z,1023.93
2017-08-21T07:10:53.251Z,1023.92
2017-08-21T07:10:53.846Z,1023.95
2017-08-21T07:10:54.454Z,1023.94
2017-08-21T07:10:55.050Z,1023.93
2017-08-21T07:10:55.648Z,1023.95
2017-08-21T07:10:56.248Z,1023.97
2017-08-21T07:13:28.564Z,1023.94
2017-08-21T07:13:29.156Z,1023.96
2017-08-21T07:13:29.751Z,1023.97
2017-08-21T07:13:30.353Z,1023.94
2017-08-21T07:13:30.956Z,1023.95
2017-08-21T07:13:31.553Z,1023.93
2017-08-21T07:13:32.154Z,1023.95
2017-08-21T07:13:32.749Z,1023.94
2017-08-21T07:13:33.351Z,1023.93
2017-08-21T07:13:33.950Z,1023.92
2017-08-21T07:13:34.552Z,1023.94
2017-08-21T07:13:35.149Z,1023.94
2017-08-21T07:15:20.259Z,1023.96
2017-08-21T07:15:20.830Z,1023.98
2017-08-21T07:15:21.432Z,1023.99
2017-08-21T07:15:22.035Z,1023.98
2017-08-21T07:15:22.636Z,1023.98
2017-08-21T07:15:23.236Z,1023.96
2017-08-21T07:18:01.544Z,1023.95
2017-08-21T08:10:53.042Z,1024.20
2017-08-21T08:10:53.565Z,1024.22
2017-08-21T08:10:54.171Z,1024.24
2017-08-21T08:10:54.765Z,1024.22
2017-08-21T08:10:55.369Z,1024.22
2017-08-21T08:10:55.974Z,1024.21
2017-08-21T08:10:56.570Z,1024.21
2017-08-21T08:10:57.163Z,1024.22
2017-08-21T08:11:53.186Z,1024.19
2017-08-21T08:11:53.781Z,1024.20
2017-08-21T08:11:54.381Z,1024.21
2017-08-21T08:11:54.984Z,1024.21
2017-08-21T08:11:55.586Z,1024.19
2017-08-21T08:11:56.182Z,1024.18
2017-08-21T08:12:51.247Z,1024.20
2017-08-21T08:12:51.846Z,1024.19
2017-08-21T08:12:52.445Z,1024.17
2017-08-21T08:12:53.052Z,1024.16
2017-08-21T08:12:53.682Z,1024.16
2017-08-21T08:12:54.248Z,1024.17
2017-08-21T08:12:54.841Z,1024.19
2017-08-21T08:12:55.444Z,1024.18
2017-08-21T08:13:50.435Z,1024.17
2017-08-21T08:13:51.029Z,1024.18
2017-08-21T08:13:51.626Z,1024.18
2017-08-21T08:13:52.231Z,1024.19
2017-08-21T08:13:52.826Z,1024.21
2017-08-21T08:13:53.427Z,1024.20
2017-08-21T08:13:54.033Z,1024.18
2017-08-21T08:14:48.020Z,1024.18
2017-08-21T08:14:48.578Z,1024.18
2017-08-21T08:14:49.177Z,1024.22
2017-08-21T08:14:49.775Z,1024.20
2017-08-21T08:14:50.383Z,1024.18
2017-08-21T08:14:50.975Z,1024.19
2017-08-21T08:14:51.579Z,1024.20
2017-08-21T08:15:55.690Z,1024.18
2017-08-21T08:15:56.276Z,1024.22
2017-08-21T08:15:57.651Z,1024.19
2017-08-21T08:15:58.125Z,1024.19
2017-08-21T08:15:58.860Z,1024.23
2017-08-21T08:15:59.327Z,1024.22
2017-08-21T08:16:53.530Z,1024.20
2017-08-21T08:16:54.124Z,1024.19
2017-08-21T08:16:54.718Z,1024.18
2017-08-21T08:16:55.337Z,1024.16
2017-08-21T08:16:55.919Z,1024.17
2017-08-21T08:16:56.521Z,1024.19
2017-08-21T08:16:57.128Z,1024.16
2017-08-21T08:17:52.199Z,1024.22
2017-08-21T08:17:52.794Z,1024.22
2017-08-21T08:17:53.407Z,1024.21
2017-08-21T08:17:53.995Z,1024.21
2017-08-21T08:17:54.603Z,1024.24
2017-08-21T08:17:55.202Z,1024.22
2017-08-21T08:19:01.217Z,1024.23
2017-08-21T08:19:01.821Z,1024.20
2017-08-21T08:19:02.415Z,1024.22
2017-08-21T08:19:03.016Z,1024.22
2017-08-21T08:19:03.616Z,1024.20
2017-08-21T08:19:59.215Z,1024.23
2017-08-21T08:19:59.779Z,1024.16
2017-08-21T08:20:00.380Z,1024.24
2017-08-21T08:20:00.976Z,1024.21
2017-08-21T08:20:01.578Z,1024.23
2017-08-21T08:20:02.176Z,1024.21
2017-08-21T08:20:02.774Z,1024.19
2017-08-21T08:20:56.738Z,1024.17
2017-08-21T08:20:57.331Z,1024.18
2017-08-21T08:20:57.925Z,1024.13
2017-08-21T08:20:58.528Z,1024.18
2017-08-21T08:20:59.124Z,1024.16
2017-08-21T08:20:59.724Z,1024.18
2017-08-21T08:21:00.327Z,1024.18
2017-08-21T08:21:55.304Z,1024.17
2017-08-21T08:21:55.903Z,1024.16
2017-08-21T08:21:56.498Z,1024.16
2017-08-21T08:21:57.101Z,1024.14
2017-08-21T08:21:57.703Z,1024.13
2017-08-21T08:21:58.301Z,1024.13
2017-08-21T08:22:56.337Z,1024.16
2017-08-21T08:22:56.929Z,1024.14
2017-08-21T08:22:57.525Z,1024.12
2017-08-21T08:23:52.346Z,1024.14
2017-08-21T08:23:52.944Z,1024.18
2017-08-21T08:23:53.541Z,1024.10
2017-08-21T08:23:54.145Z,1024.14
2017-08-21T08:23:54.743Z,1024.13
2017-08-21T08:23:55.343Z,1024.15
2017-08-21T08:23:55.965Z,1024.14
2017-08-21T08:24:49.490Z,1024.18
2017-08-21T08:24:50.082Z,1024.17
2017-08-21T08:24:50.682Z,1024.15
2017-08-21T08:24:51.283Z,1024.20
2017-08-21T08:24:51.881Z,1024.19
2017-08-21T08:24:52.486Z,1024.17
2017-08-21T08:24:53.086Z,1024.16
2017-08-21T08:24:53.685Z,1024.18
2017-08-21T08:26:03.243Z,1024.19
2017-08-21T08:26:03.813Z,1024.19
2017-08-21T08:26:04.414Z,1024.17
2017-08-21T08:26:05.006Z,1024.17
2017-08-21T08:26:05.610Z,1024.18
2017-08-21T08:26:06.217Z,1024.16
2017-08-21T08:26:06.814Z,1024.13
2017-08-21T08:26:07.410Z,1024.15
2017-08-21T08:26:08.014Z,1024.18
2017-08-21T08:26:08.606Z,1024.17
2017-08-21T08:26:09.213Z,1024.11
2017-08-21T08:26:09.809Z,1024.16